KMDT/MDT METAR and TAF weather

Enter ICAO airport designator
Station Type Date Time Source
KMDT METAR 2019/02/16 02:56 UTC NOAA

KMDT 160256Z 30013KT 10SM SCT120 OVC220 07/M07 A2977 RMK AO2 SLP081 T00671067 53029


Station Type Date Time Source
KMDT Decoded METAR 2019/02/16 02:56 UTC NOAA

HARRISBURG INTERNATIONAL AIRPORT, PA, United States (KMDT) 40-12N 076-46W 95M
Feb 15, 2019 - 09:56 PM EST / 2019.02.16 0256 UTC
Wind: from the WNW (300 degrees) at 15 MPH (13 KT):0
Visibility: 10 mile(s):0
Sky conditions: overcast
Temperature: 44.1 F (6.7 C)
Dew Point: 19.9 F (-6.7 C)
Relative Humidity: 37%
Pressure (altimeter): 29.77 in. Hg (1008 hPa)
Pressure tendency: 0.09 inches (2.9 hPa) higher than three hours ago
ob: KMDT 160256Z 30013KT 10SM SCT120 OVC220 07/M07 A2977 RMK AO2 SLP081 T00671067 53029
cycle: 3

Station Type Date Time Source
KMDT TAF 2019/02/15 22:04 UTC NOAA

TAF
AMD KMDT 152202Z 1522/1618 27007KT P6SM BKN080
FM152300 29010G20KT P6SM BKN120
FM160200 29008G15KT P6SM SKC


Example: see airport list